Time;durP1;ratioP1;P1;durP2;ratioP2;P2;SDS_P1;SDS_P2;PMS_P1;PMS_P2;Temp;Humidity;BMP_temperature;BMP_pressure;BME280_temperature;BME280_humidity;BME280_pressure;Samples;Min_cycle;Max_cycle;Signal;HPM_P1;HPM_P2
2023/05/20 00:04:21;;;;;;;9.05;5.30;;;;;;;12.04;93.24;102133.53;5132048;27;20275;-77
2023/05/20 00:10:09;;;;;;;8.18;4.50;;;;;;;11.96;93.78;102127.47;5135725;28;20398;-79
2023/05/20 00:12:37;;;;;;;8.73;5.35;;;;;;;11.92;94.47;102128.88;5117171;28;20054;-78
2023/05/20 00:15:02;;;;;;;10.10;5.18;;;;;;;11.90;95.37;102126.41;5135331;28;20031;-78
2023/05/20 00:17:28;;;;;;;10.40;5.00;;;;;;;11.87;96.14;102125.97;5134750;28;20042;-78
2023/05/20 00:19:53;;;;;;;8.88;4.65;;;;;;;11.84;96.39;102129.81;5117053;28;20497;-79
2023/05/20 00:22:19;;;;;;;12.75;5.95;;;;;;;11.74;97.36;102129.28;5116617;28;20430;-79
2023/05/20 00:24:44;;;;;;;8.30;5.00;;;;;;;11.62;97.50;102122.78;5135692;28;20027;-79
2023/05/20 00:30:32;;;;;;;10.93;4.72;;;;;;;11.54;98.83;102131.72;5135381;28;20493;-79
2023/05/20 00:39:43;;;;;;;9.43;4.70;;;;;;;11.35;99.99;102127.81;5135131;28;20555;-78
2023/05/20 00:42:08;;;;;;;10.05;5.03;;;;;;;11.29;100.00;102115.19;5134231;28;20067;-77
2023/05/20 00:44:34;;;;;;;11.43;4.80;;;;;;;11.29;100.00;102120.53;5116690;28;20031;-77
2023/05/20 00:50:21;;;;;;;10.00;5.38;;;;;;;11.20;100.00;102113.59;5135156;28;20058;-77
2023/05/20 00:52:47;;;;;;;7.20;4.72;;;;;;;11.16;100.00;102118.50;5134937;28;20467;-77
2023/05/20 00:55:12;;;;;;;9.43;5.10;;;;;;;11.14;100.00;102123.22;5133960;28;20051;-76
2023/05/20 00:57:38;;;;;;;12.20;5.93;;;;;;;11.11;100.00;102115.56;5116751;28;20023;-76
2023/05/20 01:03:26;;;;;;;11.25;5.60;;;;;;;11.03;100.00;102110.31;5134774;28;20046;-76
2023/05/20 01:13:29;;;;;;;10.35;5.05;;;;;;;11.01;100.00;102122.22;5134549;28;20080;-78
2023/05/20 01:19:40;;;;;;;10.43;5.20;;;;;;;10.88;100.00;102108.66;5134852;28;20054;-78
2023/05/20 01:25:28;;;;;;;12.38;5.65;;;;;;;10.78;100.00;102109.75;5134093;28;20142;-81
2023/05/20 01:31:31;;;;;;;15.43;5.70;;;;;;;10.68;100.00;102098.47;5134394;28;20080;-81
2023/05/20 01:37:20;;;;;;;8.82;5.63;;;;;;;10.70;100.00;102099.16;5134850;28;20073;-80
2023/05/20 01:39:48;;;;;;;11.02;6.00;;;;;;;10.65;100.00;102103.38;5133367;28;20100;-80
2023/05/20 01:45:37;;;;;;;10.85;5.90;;;;;;;10.51;100.00;102105.88;5134472;27;20038;-79
2023/05/20 01:48:02;;;;;;;16.08;6.35;;;;;;;10.45;100.00;102101.25;5134295;28;20019;-79
2023/05/20 01:53:49;;;;;;;16.75;6.53;;;;;;;10.45;100.00;102101.25;5134236;28;20039;-79
2023/05/20 02:03:02;;;;;;;14.23;6.95;;;;;;;10.33;100.00;102086.63;5133718;28;20376;-78
2023/05/20 02:08:49;;;;;;;9.30;5.97;;;;;;;10.24;100.00;102091.25;5133703;28;20088;-79
2023/05/20 02:14:36;;;;;;;13.55;6.15;;;;;;;10.17;100.00;102087.59;5133933;28;20279;-79
2023/05/20 02:17:02;;;;;;;14.57;6.43;;;;;;;10.08;100.00;102072.63;5114596;28;20031;-79
2023/05/20 02:22:49;;;;;;;13.38;6.25;;;;;;;10.05;100.00;102075.66;5133534;28;20030;-79
2023/05/20 02:28:43;;;;;;;10.38;6.13;;;;;;;10.05;100.00;102081.00;5133177;27;20515;-79
2023/05/20 02:34:31;;;;;;;11.57;6.38;;;;;;;10.03;100.00;102075.03;5133731;28;20097;-80
2023/05/20 02:36:56;;;;;;;10.98;6.18;;;;;;;10.04;100.00;102071.34;5132601;28;20051;-79
2023/05/20 02:42:43;;;;;;;12.50;6.20;;;;;;;9.98;100.00;102077.41;5133054;28;20510;-78
2023/05/20 02:45:08;;;;;;;10.43;6.40;;;;;;;9.96;100.00;102075.94;5133320;28;20027;-78
2023/05/20 02:54:46;;;;;;;11.48;6.70;;;;;;;10.05;100.00;102077.50;5133280;28;20043;-79
2023/05/20 03:00:39;;;;;;;12.38;7.15;;;;;;;10.05;100.00;102074.84;5133553;28;20127;-80
2023/05/20 03:06:26;;;;;;;11.48;6.32;;;;;;;10.02;100.00;102070.69;5133264;27;20045;-79
2023/05/20 03:12:13;;;;;;;14.13;6.88;;;;;;;9.94;100.00;102062.75;5133324;28;20039;-78
2023/05/20 03:18:00;;;;;;;13.88;6.25;;;;;;;9.93;100.00;102061.09;5133119;28;20050;-80
2023/05/20 03:20:27;;;;;;;14.82;6.80;;;;;;;9.87;100.00;102053.78;5114193;28;20106;-79
2023/05/20 03:26:14;;;;;;;8.18;6.25;;;;;;;9.92;100.00;102060.25;5133223;28;20037;-79
2023/05/20 03:28:39;;;;;;;8.80;5.97;;;;;;;9.91;100.00;102061.25;5114218;28;20027;-79
2023/05/20 03:34:29;;;;;;;13.07;6.32;;;;;;;9.87;100.00;102076.00;5132997;28;20038;-77
2023/05/20 03:36:54;;;;;;;13.43;6.28;;;;;;;9.84;100.00;102076.34;5131792;28;20045;-77
2023/05/20 03:42:41;;;;;;;8.98;6.47;;;;;;;9.79;100.00;102062.69;5136651;28;20512;-78
2023/05/20 03:48:28;;;;;;;11.15;6.07;;;;;;;9.85;100.00;102066.50;5136299;28;20049;-78
2023/05/20 03:50:53;;;;;;;17.27;6.32;;;;;;;9.81;100.00;102063.34;5116810;28;20043;-77
2023/05/20 03:56:40;;;;;;;13.23;6.03;;;;;;;9.91;100.00;102068.44;5135665;28;20058;-77
2023/05/20 03:59:06;;;;;;;12.17;6.10;;;;;;;9.89;100.00;102065.13;5135683;28;20027;-77
2023/05/20 04:01:32;;;;;;;11.90;6.57;;;;;;;9.88;100.00;102055.47;5135807;28;20360;-77
2023/05/20 04:03:57;;;;;;;10.68;6.57;;;;;;;9.97;100.00;102066.91;5116764;28;20043;-78
2023/05/20 04:06:23;;;;;;;12.30;6.72;;;;;;;10.00;100.00;102072.72;5135731;28;20428;-78
2023/05/20 04:08:49;;;;;;;15.65;6.40;;;;;;;10.02;100.00;102062.66;5135739;28;20059;-77
2023/05/20 04:11:14;;;;;;;10.98;6.35;;;;;;;10.02;100.00;102065.34;5116652;28;20043;-75
2023/05/20 04:17:05;;;;;;;10.80;6.50;;;;;;;10.23;100.00;102073.53;5135971;28;20587;-77
2023/05/20 04:22:53;;;;;;;11.95;6.20;;;;;;;10.43;100.00;102065.00;5135557;28;20034;-77
2023/05/20 04:25:18;;;;;;;10.52;6.03;;;;;;;10.60;100.00;102076.34;5134645;28;20039;-78
2023/05/20 04:27:44;;;;;;;8.77;5.75;;;;;;;10.70;100.00;102076.94;5116840;28;20027;-77
2023/05/20 04:33:31;;;;;;;11.35;6.45;;;;;;;10.99;100.00;102078.75;5135632;28;20098;-79
2023/05/20 04:35:57;;;;;;;11.80;6.10;;;;;;;11.09;100.00;102077.44;5135126;28;20020;-77
2023/05/20 04:38:29;;;;;;;9.63;6.05;;;;;;;11.25;100.00;102076.38;5134267;28;20050;-76
2023/05/20 04:44:16;;;;;;;8.48;5.93;;;;;;;11.53;100.00;102070.31;5135049;28;20061;-79
2023/05/20 04:50:12;;;;;;;11.25;6.50;;;;;;;11.97;100.00;102078.22;5135186;28;20062;-79
2023/05/20 04:52:38;;;;;;;10.13;6.07;;;;;;;12.15;100.00;102078.59;5134357;27;20866;-79
2023/05/20 04:58:25;;;;;;;11.55;6.35;;;;;;;12.58;100.00;102086.53;5135377;28;20042;-80
2023/05/20 05:00:51;;;;;;;13.52;6.00;;;;;;;12.74;100.00;102085.41;5116807;28;20023;-79
2023/05/20 05:06:38;;;;;;;13.27;6.03;;;;;;;13.41;100.00;102077.44;5135148;28;20038;-79
2023/05/20 05:12:25;;;;;;;10.23;6.15;;;;;;;14.16;100.00;102067.41;5135284;28;20042;-78
2023/05/20 05:18:12;;;;;;;10.88;5.97;;;;;;;14.69;95.17;102062.81;5134679;28;20426;-78
2023/05/20 05:20:37;;;;;;;12.18;6.07;;;;;;;14.96;95.29;102074.31;5134743;28;20023;-78
2023/05/20 05:23:03;;;;;;;13.07;5.90;;;;;;;15.25;92.52;102058.66;5133797;28;20115;-77
2023/05/20 05:25:28;;;;;;;10.70;6.75;;;;;;;15.58;91.85;102059.31;5116232;28;20035;-77
2023/05/20 05:27:54;;;;;;;9.00;5.45;;;;;;;15.95;91.43;102057.63;5115873;28;20029;-78
2023/05/20 05:30:20;;;;;;;9.57;5.80;;;;;;;16.37;87.98;102060.56;5133443;28;20047;-78
2023/05/20 05:36:07;;;;;;;10.63;5.70;;;;;;;17.12;81.19;102073.91;5134840;28;20103;-78
2023/05/20 05:38:33;;;;;;;10.77;5.57;;;;;;;17.31;80.23;102064.72;5133418;28;20483;-79
2023/05/20 05:40:58;;;;;;;8.60;4.70;;;;;;;17.69;77.74;102063.59;5134187;28;20045;-77
2023/05/20 05:43:23;;;;;;;9.55;5.10;;;;;;;17.98;77.06;102057.31;5133840;28;20085;-78
2023/05/20 05:45:49;;;;;;;14.30;6.15;;;;;;;18.42;75.29;102071.31;5115511;28;20413;-77
2023/05/20 05:48:14;;;;;;;10.17;5.87;;;;;;;18.82;74.57;102074.16;5115570;28;20546;-78
2023/05/20 05:54:01;;;;;;;8.25;5.22;;;;;;;19.41;66.98;102072.91;5134467;28;20049;-79
2023/05/20 06:03:50;;;;;;;6.80;4.78;;;;;;;20.70;63.44;102078.31;5133312;27;20034;-77
2023/05/20 06:06:15;;;;;;;9.43;5.13;;;;;;;20.80;58.94;102071.34;5115416;28;20031;-78
2023/05/20 06:12:02;;;;;;;8.10;5.18;;;;;;;21.46;57.42;102081.16;5134016;28;20303;-77
2023/05/20 06:17:49;;;;;;;9.05;5.00;;;;;;;22.14;52.11;102068.72;5134116;27;20169;-76
2023/05/20 06:23:36;;;;;;;11.02;5.40;;;;;;;22.94;50.48;102057.75;5133869;28;20054;-78
2023/05/20 06:29:23;;;;;;;8.98;5.78;;;;;;;23.17;47.67;102055.38;5133899;28;20045;-77
2023/05/20 06:35:11;;;;;;;9.40;5.20;;;;;;;24.12;44.81;102056.84;5133806;28;20049;-77
2023/05/20 06:37:36;;;;;;;8.70;4.78;;;;;;;24.14;44.32;102044.53;5114387;28;20051;-78
2023/05/20 06:43:24;;;;;;;7.57;4.97;;;;;;;25.13;44.27;102047.53;5133399;28;20054;-77
2023/05/20 06:49:11;;;;;;;7.97;5.03;;;;;;;25.96;40.46;102044.75;5133599;27;20041;-76
2023/05/20 06:54:58;;;;;;;8.82;4.90;;;;;;;26.54;39.20;102050.22;5133368;28;20304;-77
2023/05/20 06:57:23;;;;;;;8.75;5.10;;;;;;;26.61;37.78;102034.25;5114164;28;20066;-75
2023/05/20 07:03:10;;;;;;;8.77;4.95;;;;;;;27.13;36.57;102040.72;5132205;28;20373;-77
2023/05/20 07:08:57;;;;;;;8.13;4.60;;;;;;;27.87;34.42;102043.72;5133653;28;20042;-76
2023/05/20 07:18:06;;;;;;;8.77;4.60;;;;;;;27.84;33.66;102038.81;5137138;28;20498;-74
2023/05/20 07:23:54;;;;;;;7.68;4.78;;;;;;;29.07;32.94;102030.63;5136736;28;20129;-74
2023/05/20 07:29:41;;;;;;;5.85;4.03;;;;;;;30.44;29.36;102018.09;5136426;28;20057;-73
2023/05/20 07:35:31;;;;;;;6.97;4.22;;;;;;;29.68;30.58;102029.19;5136482;28;20083;-74
2023/05/20 07:41:20;;;;;;;6.47;4.10;;;;;;;28.90;30.93;102011.19;5135648;28;20050;-74
2023/05/20 07:43:45;;;;;;;7.22;3.75;;;;;;;29.45;30.31;102016.53;5117568;28;20038;-74
2023/05/20 07:46:11;;;;;;;5.68;3.83;;;;;;;29.33;29.61;102016.25;5136338;28;20387;-75
2023/05/20 07:48:36;;;;;;;7.18;4.15;;;;;;;28.68;30.17;102009.16;5116818;28;20050;-75
2023/05/20 07:54:23;;;;;;;6.28;4.10;;;;;;;28.49;30.96;102005.72;5136053;27;20322;-75
2023/05/20 07:56:49;;;;;;;7.55;4.50;;;;;;;27.99;31.35;102011.84;5116812;28;20418;-75
2023/05/20 08:02:36;;;;;;;4.53;3.72;;;;;;;28.35;30.42;102001.03;5136238;28;20055;-77
2023/05/20 08:08:23;;;;;;;7.18;3.80;;;;;;;27.93;30.82;101995.75;5135210;28;20305;-75
2023/05/20 08:10:51;;;;;;;6.63;3.60;;;;;;;29.09;30.67;101994.50;5117449;28;20027;-74
2023/05/20 08:13:17;;;;;;;7.60;3.75;;;;;;;29.76;28.99;101998.09;5117145;28;20475;-77
2023/05/20 08:15:42;;;;;;;11.52;4.20;;;;;;;28.98;28.75;102002.19;5134944;28;20042;-75
2023/05/20 08:21:29;;;;;;;12.82;4.32;;;;;;;27.35;32.08;101987.91;5135887;27;20042;-76
2023/05/20 08:23:54;;;;;;;8.90;4.23;;;;;;;28.28;31.75;101988.78;5117103;28;20027;-76
2023/05/20 08:26:20;;;;;;;6.32;3.95;;;;;;;28.38;30.23;101988.59;5134678;27;20670;-75
2023/05/20 08:28:47;;;;;;;9.45;4.32;;;;;;;27.74;31.50;101991.13;5134522;27;20035;-76
2023/05/20 08:31:12;;;;;;;7.35;4.00;;;;;;;28.60;30.69;101991.41;5135446;28;20031;-77
2023/05/20 08:33:38;;;;;;;14.23;4.40;;;;;;;29.65;29.06;101982.13;5116296;28;20042;-77
2023/05/20 08:36:04;;;;;;;4.78;3.45;;;;;;;29.58;30.16;101982.59;5135655;28;20025;-76
2023/05/20 08:38:29;;;;;;;17.10;4.60;;;;;;;29.49;29.12;101981.69;5116329;28;20387;-75
2023/05/20 08:40:55;;;;;;;10.18;3.80;;;;;;;29.98;28.48;101977.94;5116927;28;20479;-76
2023/05/20 08:43:22;;;;;;;10.18;4.30;;;;;;;30.88;28.57;101986.69;5135152;28;20027;-77
2023/05/20 08:45:48;;;;;;;8.10;3.92;;;;;;;31.18;29.47;101986.88;5134213;28;20182;-76
2023/05/20 08:48:16;;;;;;;10.25;4.32;;;;;;;31.55;27.85;101985.38;5135191;28;20642;-74
2023/05/20 08:50:42;;;;;;;7.10;4.20;;;;;;;30.97;27.74;101972.88;5134731;28;20035;-76
2023/05/20 08:53:08;;;;;;;7.90;4.18;;;;;;;30.72;26.70;101980.00;5135428;28;20025;-76
2023/05/20 08:55:42;;;;;;;6.78;3.88;;;;;;;30.03;27.98;101977.00;5116776;28;20398;-76
2023/05/20 08:58:08;;;;;;;6.28;3.83;;;;;;;30.10;27.54;101974.63;5116430;28;20491;-77
2023/05/20 09:00:34;;;;;;;6.43;3.92;;;;;;;30.75;27.01;101976.59;5116698;28;20031;-77
2023/05/20 09:02:59;;;;;;;8.15;4.10;;;;;;;31.48;26.52;101977.56;5134187;28;20068;-76
2023/05/20 09:08:50;;;;;;;9.23;3.70;;;;;;;30.30;27.20;101981.50;5135382;27;20050;-77
2023/05/20 09:11:16;;;;;;;5.93;3.63;;;;;;;30.62;26.85;101963.72;5116432;28;20382;-74
2023/05/20 09:13:42;;;;;;;7.00;3.45;;;;;;;30.76;26.70;101956.13;5116328;28;20263;-77
2023/05/20 09:16:10;;;;;;;7.35;3.40;;;;;;;30.53;26.77;101969.22;5116200;28;20046;-77
2023/05/20 09:18:38;;;;;;;6.95;3.50;;;;;;;29.76;26.17;101950.41;5116568;28;20034;-78
2023/05/20 09:21:05;;;;;;;7.90;3.45;;;;;;;29.02;26.90;101961.06;5115780;28;20495;-77
2023/05/20 09:23:31;;;;;;;7.53;3.40;;;;;;;28.53;28.75;101958.00;5134556;28;20027;-79
2023/05/20 09:26:01;;;;;;;6.82;3.70;;;;;;;28.38;29.67;101961.88;5134621;28;20031;-77
2023/05/20 09:28:26;;;;;;;6.05;3.30;;;;;;;28.06;28.97;101959.22;5116013;28;20387;-76
2023/05/20 09:30:58;;;;;;;6.93;3.42;;;;;;;27.54;30.67;101960.41;5116450;28;20122;-75
2023/05/20 09:33:28;;;;;;;6.10;3.55;;;;;;;27.25;30.85;101950.44;5115723;28;20459;-76
2023/05/20 09:36:03;;;;;;;9.65;4.20;;;;;;;26.37;32.92;101951.13;5134558;28;20076;-76
2023/05/20 09:38:36;;;;;;;6.70;3.80;;;;;;;25.78;32.95;101941.34;5133554;27;20400;-76
2023/05/20 09:41:12;;;;;;;5.95;4.07;;;;;;;26.11;32.68;101945.91;5134396;28;20135;-77
2023/05/20 09:43:39;;;;;;;6.50;3.78;;;;;;;25.75;34.32;101941.91;5134338;28;20167;-75
2023/05/20 09:46:05;;;;;;;7.15;4.40;;;;;;;25.40;36.05;101943.00;5115289;28;20425;-75
2023/05/20 09:48:34;;;;;;;8.57;4.03;;;;;;;25.31;37.43;101951.84;5115726;28;20027;-76
2023/05/20 09:51:01;;;;;;;9.20;4.20;;;;;;;25.39;34.74;101949.59;5115234;28;20043;-76
2023/05/20 09:53:27;;;;;;;7.45;3.85;;;;;;;25.18;35.48;101943.47;5134140;28;20405;-76
2023/05/20 09:55:53;;;;;;;8.40;3.97;;;;;;;24.92;36.89;101940.88;5115495;28;20084;-77
2023/05/20 09:58:19;;;;;;;5.22;4.45;;;;;;;24.53;36.99;101945.47;5134070;28;20031;-76
2023/05/20 10:00:45;;;;;;;6.57;3.80;;;;;;;24.39;40.00;101951.53;5134060;28;20399;-76
2023/05/20 10:03:11;;;;;;;6.07;3.65;;;;;;;24.70;38.84;101938.53;5133052;28;20046;-75
2023/05/20 10:05:49;;;;;;;9.48;3.80;;;;;;;24.66;36.63;101925.72;5134199;28;20024;-77
2023/05/20 10:08:30;;;;;;;7.00;3.85;;;;;;;24.79;37.66;101925.06;5115040;28;20162;-75
2023/05/20 10:11:09;;;;;;;5.55;3.58;;;;;;;24.65;37.32;101926.81;5134212;28;20031;-75
2023/05/20 10:13:41;;;;;;;7.90;3.92;;;;;;;24.24;40.26;101917.94;5115625;28;20038;-75
2023/05/20 10:16:37;;;;;;;9.63;4.20;;;;;;;24.40;38.36;101917.63;5127381;28;20127;-77
2023/05/20 10:19:26;;;;;;;6.70;3.55;;;;;;;24.42;37.70;101911.06;5115574;28;20060;-76
2023/05/20 10:22:03;;;;;;;8.23;3.95;;;;;;;24.35;37.61;101897.72;5114708;28;20428;-77
2023/05/20 10:24:36;;;;;;;7.22;3.40;;;;;;;24.19;38.11;101907.84;5133416;28;20092;-76
2023/05/20 10:27:04;;;;;;;5.65;3.78;;;;;;;24.16;38.18;101897.47;5132745;27;20383;-76
2023/05/20 10:29:50;;;;;;;6.40;3.50;;;;;;;24.35;39.24;101908.66;5115207;28;20035;-77
2023/05/20 10:32:26;;;;;;;6.28;3.40;;;;;;;24.18;38.52;101902.66;5132784;28;20822;-77
2023/05/20 10:38:13;;;;;;;5.93;3.83;;;;;;;23.86;38.90;101890.19;5133640;28;20091;-76
2023/05/20 10:40:39;;;;;;;9.83;4.03;;;;;;;23.49;39.73;101882.31;5115118;28;20443;-77
2023/05/20 10:43:12;;;;;;;5.85;3.60;;;;;;;23.73;39.08;101877.13;5114906;28;20776;-75
2023/05/20 10:46:16;;;;;;;5.70;3.53;;;;;;;24.11;40.70;101886.56;5114386;28;20402;-75
2023/05/20 10:48:42;;;;;;;7.50;3.65;;;;;;;23.78;39.58;101883.38;5081068;28;20130;-77
2023/05/20 10:51:13;;;;;;;6.00;3.60;;;;;;;23.91;41.70;101872.97;5113834;28;20035;-77
2023/05/20 10:53:40;;;;;;;7.55;3.78;;;;;;;23.53;41.61;101875.22;5133290;28;20031;-76
2023/05/20 10:56:16;;;;;;;7.28;3.72;;;;;;;23.38;42.59;101877.94;5114073;28;20042;-77
2023/05/20 10:58:42;;;;;;;7.78;4.20;;;;;;;22.98;42.10;101867.88;5133165;28;20023;-76
2023/05/20 11:01:09;;;;;;;6.45;4.55;;;;;;;22.98;43.80;101874.13;5114751;28;20023;-75
2023/05/20 11:03:35;;;;;;;5.13;3.78;;;;;;;22.82;43.04;101870.56;5132151;28;20050;-75
2023/05/20 11:06:00;;;;;;;7.90;3.80;;;;;;;22.95;43.92;101869.22;5114446;28;20031;-76
2023/05/20 11:08:32;;;;;;;5.03;3.50;;;;;;;23.25;41.35;101873.06;5132208;28;20049;-75
2023/05/20 11:10:57;;;;;;;6.80;3.77;;;;;;;22.87;46.73;101856.13;5114641;28;20312;-76
2023/05/20 11:13:23;;;;;;;9.30;4.03;;;;;;;23.26;43.20;101844.66;5132405;28;20555;-78
2023/05/20 11:15:49;;;;;;;7.53;3.92;;;;;;;23.70;43.48;101851.16;5132528;28;20122;-75
2023/05/20 11:18:14;;;;;;;7.90;3.72;;;;;;;24.07;41.92;101855.44;5114497;28;20030;-76
2023/05/20 11:20:39;;;;;;;6.97;3.65;;;;;;;24.18;40.18;101861.66;5113949;28;20039;-75
2023/05/20 11:23:10;;;;;;;9.05;4.20;;;;;;;24.39;39.83;101853.09;5132816;28;20023;-75
2023/05/20 11:25:35;;;;;;;10.55;4.90;;;;;;;24.26;38.91;101842.75;5131991;28;20078;-77
2023/05/20 11:28:01;;;;;;;8.02;4.03;;;;;;;23.93;39.74;101838.78;5132639;27;20051;-75
2023/05/20 11:30:26;;;;;;;6.73;4.53;;;;;;;23.65;40.77;101853.09;5114232;28;20030;-76
2023/05/20 11:32:57;;;;;;;5.35;3.88;;;;;;;23.13;42.94;101854.22;5113494;28;20660;-76
2023/05/20 11:35:23;;;;;;;10.52;3.92;;;;;;;23.05;43.01;101854.75;5114433;28;20034;-76
2023/05/20 11:38:02;;;;;;;9.75;4.20;;;;;;;22.95;42.79;101843.84;5132277;28;20043;-77
2023/05/20 11:40:29;;;;;;;6.63;4.00;;;;;;;23.13;43.76;101848.75;5132729;28;20474;-76
2023/05/20 11:42:56;;;;;;;5.40;3.33;;;;;;;23.31;42.24;101842.75;5114287;28;20110;-76
2023/05/20 11:45:22;;;;;;;7.60;3.65;;;;;;;23.36;41.79;101845.47;5132010;28;20036;-76
2023/05/20 11:47:58;;;;;;;7.72;3.38;;;;;;;23.56;42.31;101844.66;5114286;28;20040;-76
2023/05/20 11:50:23;;;;;;;4.82;3.58;;;;;;;23.51;41.78;101841.09;5131658;28;20039;-77
2023/05/20 11:52:56;;;;;;;4.75;3.63;;;;;;;23.35;42.77;101845.75;5132487;28;20038;-77
2023/05/20 11:55:21;;;;;;;8.15;3.65;;;;;;;23.40;41.23;101834.81;5132846;28;20046;-77
2023/05/20 11:57:47;;;;;;;9.20;3.33;;;;;;;23.44;42.38;101835.91;5131722;28;20487;-76
2023/05/20 12:00:12;;;;;;;7.97;3.20;;;;;;;23.57;44.25;101835.38;5132509;28;20510;-77
2023/05/20 12:02:37;;;;;;;5.38;3.38;;;;;;;23.34;40.48;101831.28;5133294;27;20047;-77
2023/05/20 12:08:24;;;;;;;4.68;3.47;;;;;;;22.91;42.76;101831.88;5135998;28;20156;-76
2023/05/20 12:10:49;;;;;;;7.13;3.38;;;;;;;22.89;43.67;101821.22;5117668;28;20479;-77
2023/05/20 12:13:15;;;;;;;5.32;3.30;;;;;;;22.80;43.50;101811.91;5117085;28;20031;-77
2023/05/20 12:15:40;;;;;;;5.33;3.40;;;;;;;22.95;42.18;101811.94;5135283;28;20555;-77
2023/05/20 12:18:05;;;;;;;5.07;3.28;;;;;;;23.46;41.45;101815.44;5135664;28;20268;-77
2023/05/20 12:20:33;;;;;;;8.10;3.70;;;;;;;23.42;43.22;101805.34;5116702;28;20125;-76
2023/05/20 12:22:59;;;;;;;5.80;3.13;;;;;;;22.87;44.16;101804.31;5135532;28;20104;-76
2023/05/20 12:25:24;;;;;;;8.88;3.63;;;;;;;23.20;44.72;101802.94;5116554;28;20118;-77
2023/05/20 12:27:50;;;;;;;8.07;3.30;;;;;;;23.79;44.36;101803.06;5135214;27;20118;-76
2023/05/20 12:30:17;;;;;;;6.20;3.17;;;;;;;24.28;42.58;101791.38;5116972;28;20391;-77
2023/05/20 12:32:43;;;;;;;4.43;3.50;;;;;;;24.69;41.34;101802.03;5116356;28;20043;-76
2023/05/20 12:35:10;;;;;;;5.10;3.50;;;;;;;24.45;40.24;101796.47;5135538;28;20023;-75
2023/05/20 12:37:37;;;;;;;13.23;3.90;;;;;;;24.28;42.94;101802.31;5116201;28;20503;-75
2023/05/20 12:40:07;;;;;;;5.00;3.28;;;;;;;24.06;42.54;101805.41;5135422;28;20039;-75
2023/05/20 12:42:39;;;;;;;5.80;3.33;;;;;;;24.00;42.45;101797.53;5135358;28;20034;-76
2023/05/20 12:45:06;;;;;;;7.88;3.50;;;;;;;24.03;41.82;101796.97;5116335;28;20062;-77
2023/05/20 12:47:32;;;;;;;6.70;3.58;;;;;;;23.96;43.24;101804.63;5116704;28;20046;-76
2023/05/20 12:49:58;;;;;;;5.40;3.38;;;;;;;24.07;41.28;101795.31;5134546;28;20117;-76
2023/05/20 12:52:25;;;;;;;7.57;4.22;;;;;;;23.78;41.67;101795.97;5135160;28;20444;-76
2023/05/20 12:54:51;;;;;;;4.13;3.15;;;;;;;23.30;44.30;101791.16;5116535;28;20027;-76
2023/05/20 12:57:17;;;;;;;4.60;3.58;;;;;;;23.50;43.26;101785.66;5134447;28;20046;-76
2023/05/20 12:59:43;;;;;;;5.07;3.15;;;;;;;23.79;43.00;101797.59;5116581;28;20411;-74
2023/05/20 13:02:09;;;;;;;5.60;3.10;;;;;;;23.69;44.19;101789.44;5134107;28;20055;-75
2023/05/20 13:04:35;;;;;;;3.85;3.15;;;;;;;23.84;44.06;101771.38;5116970;28;20063;-76
2023/05/20 13:07:00;;;;;;;6.22;3.50;;;;;;;24.19;41.77;101779.38;5116756;28;20084;-77
2023/05/20 13:09:25;;;;;;;7.55;3.50;;;;;;;24.33;42.78;101794.09;5116065;28;20047;-77
2023/05/20 13:11:51;;;;;;;4.40;3.50;;;;;;;24.12;45.04;101787.06;5134695;28;20094;-77
2023/05/20 13:14:16;;;;;;;6.40;3.20;;;;;;;24.07;42.72;101779.72;5115613;28;20281;-74
2023/05/20 13:16:41;;;;;;;4.88;3.40;;;;;;;24.02;43.50;101781.66;5134907;28;20104;-76
2023/05/20 13:19:07;;;;;;;3.88;3.28;;;;;;;23.58;44.21;101787.03;5116270;28;20076;-77
2023/05/20 13:21:33;;;;;;;4.38;3.15;;;;;;;23.27;43.19;101778.06;5115989;28;20043;-78
2023/05/20 13:23:59;;;;;;;5.70;3.13;;;;;;;23.38;45.74;101779.66;5116281;28;20027;-77
2023/05/20 13:26:25;;;;;;;6.05;3.40;;;;;;;23.70;45.28;101766.47;5115535;27;20578;-77
2023/05/20 13:28:50;;;;;;;6.93;3.15;;;;;;;23.77;44.04;101774.41;5134906;28;20027;-77
2023/05/20 13:31:16;;;;;;;6.73;3.10;;;;;;;23.55;44.78;101787.56;5134175;28;20087;-76
2023/05/20 13:33:41;;;;;;;4.67;3.30;;;;;;;22.88;48.84;101778.66;5134387;28;20372;-76
2023/05/20 13:36:06;;;;;;;4.32;3.17;;;;;;;22.94;45.08;101774.84;5134450;28;20480;-75
2023/05/20 13:38:32;;;;;;;7.85;2.92;;;;;;;22.83;47.08;101782.19;5133705;28;20543;-77
2023/05/20 13:40:58;;;;;;;3.70;3.20;;;;;;;22.84;46.68;101781.13;5134382;28;20042;-76
2023/05/20 13:43:25;;;;;;;4.28;3.17;;;;;;;22.99;46.09;101780.28;5115044;28;20029;-76
2023/05/20 13:49:12;;;;;;;8.05;3.60;;;;;;;23.25;45.08;101766.63;5134594;28;20046;-76
2023/05/20 13:51:37;;;;;;;4.67;3.40;;;;;;;23.37;45.23;101765.19;5134037;28;20023;-76
2023/05/20 13:54:03;;;;;;;4.43;3.35;;;;;;;23.13;46.06;101759.56;5134048;28;20788;-77
2023/05/20 13:56:29;;;;;;;5.60;3.45;;;;;;;22.95;45.93;101746.47;5115221;28;20188;-77
2023/05/20 13:58:54;;;;;;;7.40;3.70;;;;;;;23.09;43.60;101752.97;5115706;28;20067;-76
2023/05/20 14:01:19;;;;;;;6.75;3.28;;;;;;;23.10;44.48;101759.25;5114938;28;20051;-78
2023/05/20 14:03:45;;;;;;;6.05;3.28;;;;;;;22.91;45.88;101755.47;5115895;28;20099;-77
2023/05/20 14:06:10;;;;;;;4.65;3.40;;;;;;;22.86;45.25;101756.31;5134195;28;20042;-77
2023/05/20 14:08:36;;;;;;;5.28;4.78;;;;;;;23.11;45.43;101750.78;5133231;28;20042;-76
2023/05/20 14:11:01;;;;;;;4.93;3.25;;;;;;;23.17;44.96;101749.72;5115620;28;20478;-75
2023/05/20 14:13:26;;;;;;;3.93;3.20;;;;;;;23.11;45.08;101755.44;5132915;28;20487;-76
2023/05/20 14:15:53;;;;;;;5.93;3.72;;;;;;;23.14;43.94;101750.28;5115545;28;20273;-77
2023/05/20 14:18:19;;;;;;;5.60;3.40;;;;;;;23.05;43.99;101757.34;5115512;28;20019;-76
2023/05/20 14:20:44;;;;;;;5.32;3.58;;;;;;;22.93;45.34;101742.38;5133005;28;20070;-77
2023/05/20 14:23:10;;;;;;;6.93;3.30;;;;;;;22.92;47.25;101757.13;5115317;28;20443;-76
2023/05/20 14:25:36;;;;;;;6.20;3.63;;;;;;;22.50;45.95;101749.97;5113977;28;20039;-76
2023/05/20 14:28:01;;;;;;;6.15;3.22;;;;;;;22.25;46.51;101731.69;5133588;27;20110;-76
2023/05/20 14:30:27;;;;;;;5.60;3.20;;;;;;;22.40;46.61;101737.16;5133778;28;20083;-77
2023/05/20 14:32:52;;;;;;;5.95;3.80;;;;;;;22.51;48.85;101737.97;5114607;28;20039;-77
2023/05/20 14:35:17;;;;;;;5.70;3.17;;;;;;;22.44;48.17;101723.81;5133607;28;20023;-77
2023/05/20 14:37:43;;;;;;;3.95;3.28;;;;;;;22.54;48.62;101730.06;5132630;28;20314;-76
2023/05/20 14:40:09;;;;;;;7.40;3.65;;;;;;;22.80;45.59;101727.34;5133623;28;20110;-77
2023/05/20 14:46:15;;;;;;;4.35;3.15;;;;;;;23.20;44.82;101715.59;5133585;28;20168;-75
2023/05/20 14:48:40;;;;;;;7.20;3.50;;;;;;;23.20;45.26;101714.78;5133652;28;20376;-77
2023/05/20 14:51:05;;;;;;;5.20;3.00;;;;;;;23.14;44.84;101719.44;5114399;28;20316;-76
2023/05/20 14:53:31;;;;;;;5.55;3.42;;;;;;;23.12;45.28;101706.03;5133530;28;20373;-76
2023/05/20 14:55:56;;;;;;;4.57;3.40;;;;;;;23.13;47.65;101715.03;5114301;28;20042;-75
2023/05/20 14:58:21;;;;;;;5.67;3.30;;;;;;;23.24;47.51;101707.66;5133311;28;20280;-76
2023/05/20 15:00:46;;;;;;;5.20;3.30;;;;;;;23.37;45.85;101702.41;5114160;28;20322;-76
2023/05/20 15:03:12;;;;;;;6.22;3.20;;;;;;;23.31;44.48;101711.72;5114697;28;20033;-76
2023/05/20 15:05:37;;;;;;;7.93;3.40;;;;;;;23.12;45.54;101694.31;5133143;28;20039;-76
2023/05/20 15:08:03;;;;;;;5.82;3.17;;;;;;;22.89;45.53;101693.03;5132355;28;20511;-76
2023/05/20 15:13:50;;;;;;;5.97;3.28;;;;;;;22.95;45.98;101682.91;5133541;28;20053;-76
2023/05/20 15:16:18;;;;;;;4.57;3.35;;;;;;;22.98;45.30;101691.34;5114554;28;20019;-76
2023/05/20 15:18:43;;;;;;;5.68;3.13;;;;;;;22.94;45.29;101689.47;5132161;28;20114;-76
2023/05/20 15:21:08;;;;;;;5.35;3.20;;;;;;;22.75;45.10;101686.44;5133189;28;20027;-77
2023/05/20 15:23:59;;;;;;;6.63;3.40;;;;;;;22.77;45.25;101693.25;5114686;28;20597;-75
2023/05/20 15:26:25;;;;;;;5.43;3.00;;;;;;;22.78;44.92;101691.34;5132067;27;20276;-76
2023/05/20 15:28:50;;;;;;;4.32;3.03;;;;;;;22.71;45.12;101690.81;5132799;28;20031;-77